createdAt,value
2022-10-07T00:01:10.886Z,86.21
2022-10-07T00:03:39.160Z,86.14
2022-10-07T00:06:15.838Z,86.23
2022-10-07T00:08:47.080Z,86.25
2022-10-07T00:11:23.868Z,86.37
2022-10-07T00:13:55.169Z,86.34
2022-10-07T00:16:32.262Z,86.33
2022-10-07T00:19:02.812Z,86.40
2022-10-07T00:21:33.441Z,86.46
2022-10-07T00:24:01.760Z,86.39
2022-10-07T00:26:31.833Z,86.53
2022-10-07T00:28:59.716Z,86.81
2022-10-07T00:31:30.287Z,86.79
2022-10-07T00:33:59.427Z,86.75
2022-10-07T00:36:33.758Z,86.72
2022-10-07T00:39:05.243Z,86.73
2022-10-07T00:41:39.707Z,87.00
2022-10-07T00:44:32.496Z,86.87
2022-10-07T00:47:14.453Z,86.87
2022-10-07T00:50:07.511Z,86.83
2022-10-07T00:52:40.511Z,86.73
2022-10-07T00:55:12.516Z,86.69
2022-10-07T00:57:42.138Z,86.69
2022-10-07T01:00:11.754Z,86.68
2022-10-07T01:02:39.957Z,86.66
2022-10-07T01:05:14.350Z,86.59
2022-10-07T01:07:43.563Z,86.68
2022-10-07T01:10:12.869Z,86.68
2022-10-07T01:12:59.562Z,86.63
2022-10-07T01:16:17.450Z,86.74
2022-10-07T01:19:00.420Z,86.78
2022-10-07T01:22:02.012Z,86.75
2022-10-07T01:24:42.679Z,86.71
2022-10-07T01:27:18.236Z,86.77
2022-10-07T01:29:56.252Z,86.73
2022-10-07T01:32:36.991Z,86.70
2022-10-07T01:35:14.039Z,86.66
2022-10-07T01:37:48.555Z,86.80
2022-10-07T01:40:22.065Z,86.85
2022-10-07T01:42:52.182Z,86.99
2022-10-07T01:45:22.399Z,86.99
2022-10-07T01:47:51.858Z,87.01
2022-10-07T01:50:25.654Z,86.89
2022-10-07T01:53:35.322Z,86.90
2022-10-07T01:56:22.725Z,86.99
2022-10-07T01:59:13.785Z,86.94
2022-10-07T02:01:58.881Z,86.97
2022-10-07T02:04:45.564Z,87.07
2022-10-07T02:07:48.678Z,87.01
2022-10-07T02:10:28.147Z,87.05
2022-10-07T02:13:04.963Z,86.92
2022-10-07T02:15:40.879Z,86.85
2022-10-07T02:18:14.929Z,86.97
2022-10-07T02:20:47.453Z,86.94
2022-10-07T02:23:18.249Z,86.91
2022-10-07T02:25:48.822Z,86.91
2022-10-07T02:28:21.785Z,87.02
2022-10-07T02:30:55.771Z,87.05
2022-10-07T02:33:27.893Z,87.10
2022-10-07T02:36:08.089Z,87.16
2022-10-07T02:38:35.846Z,87.13
2022-10-07T02:41:33.713Z,87.11
2022-10-07T02:44:07.675Z,87.14
2022-10-07T02:46:46.629Z,87.10
2022-10-07T02:49:18.405Z,87.11
2022-10-07T02:51:53.237Z,87.14
2022-10-07T02:54:31.850Z,87.13
2022-10-07T02:57:02.073Z,87.09
2022-10-07T02:59:32.190Z,87.15
2022-10-07T03:02:03.988Z,87.18
2022-10-07T03:04:32.324Z,87.31
2022-10-07T03:07:01.374Z,87.29
2022-10-07T03:09:30.819Z,87.33
2022-10-07T03:11:58.563Z,87.27
2022-10-07T03:14:26.447Z,87.30
2022-10-07T03:16:54.320Z,87.34
2022-10-07T03:19:22.085Z,87.41
2022-10-07T03:21:50.761Z,87.38
2022-10-07T03:24:18.911Z,87.35
2022-10-07T03:26:47.108Z,87.29
2022-10-07T03:29:15.283Z,87.24
2022-10-07T03:31:43.154Z,87.15
2022-10-07T03:34:11.317Z,87.20
2022-10-07T03:36:39.498Z,87.19
2022-10-07T03:39:07.265Z,87.09
2022-10-07T03:41:35.122Z,87.04
2022-10-07T03:44:03.193Z,86.99
2022-10-07T03:46:31.122Z,87.08
2022-10-07T03:48:59.473Z,87.03
2022-10-07T03:51:27.300Z,87.04
2022-10-07T03:53:57.703Z,87.05
2022-10-07T03:56:25.795Z,87.08
2022-10-07T03:58:53.561Z,87.09
2022-10-07T04:01:21.776Z,87.19
2022-10-07T04:03:49.802Z,87.08
2022-10-07T04:06:18.181Z,87.10
2022-10-07T04:08:45.939Z,87.11
2022-10-07T04:11:13.703Z,87.12
2022-10-07T04:13:41.468Z,87.18
2022-10-07T04:16:10.712Z,87.17
2022-10-07T04:18:39.348Z,87.13
2022-10-07T04:21:07.113Z,87.14
2022-10-07T04:23:36.227Z,87.10
2022-10-07T04:26:09.551Z,87.12
2022-10-07T04:28:38.224Z,87.20
2022-10-07T04:31:09.042Z,87.14
2022-10-07T04:33:41.284Z,87.15
2022-10-07T04:36:10.998Z,87.15
2022-10-07T04:38:38.763Z,87.26
2022-10-07T04:41:07.522Z,87.15
2022-10-07T04:43:35.311Z,87.14
2022-10-07T04:46:13.893Z,87.13
2022-10-07T04:48:45.938Z,87.01
2022-10-07T04:51:16.082Z,87.01
2022-10-07T04:53:44.389Z,87.13
2022-10-07T04:56:12.250Z,87.10
2022-10-07T04:58:39.937Z,87.15
2022-10-07T05:01:10.121Z,87.13
2022-10-07T05:03:40.061Z,87.12
2022-10-07T05:06:08.889Z,87.16
2022-10-07T05:08:37.259Z,87.18
2022-10-07T05:11:05.180Z,87.16
2022-10-07T05:13:34.492Z,87.16
2022-10-07T05:16:03.895Z,87.18
2022-10-07T05:18:33.587Z,87.20
2022-10-07T05:21:06.807Z,87.24
2022-10-07T05:23:36.889Z,87.25
2022-10-07T05:26:08.231Z,87.24
2022-10-07T05:28:37.776Z,87.24
2022-10-07T05:31:08.347Z,87.37
2022-10-07T05:33:37.118Z,87.32
2022-10-07T05:36:08.012Z,87.20
2022-10-07T05:38:36.993Z,87.34
2022-10-07T05:41:07.360Z,87.41
2022-10-07T05:43:38.251Z,87.43
2022-10-07T05:46:08.576Z,87.43
2022-10-07T05:48:39.541Z,87.47
2022-10-07T05:51:08.819Z,87.56
2022-10-07T05:53:36.990Z,87.63
2022-10-07T05:56:09.150Z,87.62
2022-10-07T05:58:37.280Z,87.78
2022-10-07T06:01:12.900Z,87.88
2022-10-07T06:03:43.202Z,87.91
2022-10-07T06:06:11.306Z,87.95
2022-10-07T06:08:39.051Z,88.03
2022-10-07T06:11:26.346Z,88.08
2022-10-07T06:13:55.235Z,88.13
2022-10-07T06:16:24.454Z,88.16
2022-10-07T06:18:53.705Z,88.19
2022-10-07T06:21:28.335Z,88.22
2022-10-07T06:23:58.532Z,88.30
2022-10-07T06:26:26.544Z,88.24
2022-10-07T06:28:54.263Z,88.21
2022-10-07T06:31:24.837Z,88.08
2022-10-07T06:33:53.555Z,88.00
2022-10-07T06:36:21.493Z,87.91
2022-10-07T06:38:51.094Z,87.91
2022-10-07T06:41:21.417Z,87.87
2022-10-07T06:43:49.795Z,87.79
2022-10-07T06:46:20.198Z,87.82
2022-10-07T06:48:48.093Z,87.67
2022-10-07T06:51:21.318Z,87.57
2022-10-07T06:53:54.858Z,87.45
2022-10-07T06:56:23.731Z,87.46
2022-10-07T06:58:51.748Z,87.32
2022-10-07T07:01:19.624Z,87.16
2022-10-07T07:03:47.838Z,87.08
2022-10-07T07:06:15.844Z,86.99
2022-10-07T07:08:46.476Z,86.97
2022-10-07T07:11:33.487Z,86.83
2022-10-07T07:14:02.594Z,86.73
2022-10-07T07:16:31.347Z,86.61
2022-10-07T07:19:02.695Z,86.47
2022-10-07T07:21:30.993Z,86.29
2022-10-07T07:23:59.678Z,86.14
2022-10-07T07:26:28.342Z,85.83
2022-10-07T07:28:59.543Z,85.42
2022-10-07T07:31:29.242Z,85.08
2022-10-07T07:34:01.073Z,84.94
2022-10-07T07:36:31.088Z,84.46
2022-10-07T07:39:02.036Z,84.13
2022-10-07T07:41:32.907Z,84.02
2022-10-07T07:44:04.073Z,83.45
2022-10-07T07:46:39.087Z,83.28
2022-10-07T07:49:07.209Z,82.95
2022-10-07T07:51:35.075Z,82.32
2022-10-07T07:54:03.252Z,82.23
2022-10-07T07:56:33.885Z,81.72
2022-10-07T07:59:02.571Z,81.64
2022-10-07T08:01:33.313Z,80.48
2022-10-07T08:04:03.208Z,80.61
2022-10-07T08:06:31.649Z,79.74
2022-10-07T08:08:59.676Z,79.62
2022-10-07T08:11:28.852Z,79.17
2022-10-07T08:13:57.231Z,78.17
2022-10-07T08:16:27.391Z,78.05
2022-10-07T08:18:56.852Z,77.35
2022-10-07T08:21:28.098Z,77.35
2022-10-07T08:23:58.527Z,76.61
2022-10-07T08:26:31.377Z,76.20
2022-10-07T08:29:00.603Z,76.23
2022-10-07T08:31:29.402Z,75.40
2022-10-07T08:33:59.836Z,74.77
2022-10-07T08:36:29.627Z,74.55
2022-10-07T08:38:57.496Z,73.71
2022-10-07T08:41:34.475Z,73.13
2022-10-07T08:44:10.394Z,71.46
2022-10-07T08:46:49.147Z,70.14
2022-10-07T08:49:21.750Z,70.01
2022-10-07T08:51:58.607Z,69.57
2022-10-07T08:54:30.873Z,68.59
2022-10-07T08:57:12.560Z,70.32
2022-10-07T08:59:47.791Z,69.50
2022-10-07T09:02:29.924Z,69.76
2022-10-07T09:05:33.729Z,69.09
2022-10-07T09:08:06.760Z,68.60
2022-10-07T09:10:49.915Z,67.57
2022-10-07T09:13:26.224Z,67.93
2022-10-07T09:16:01.607Z,66.45
2022-10-07T09:18:40.207Z,66.78
2022-10-07T09:21:16.859Z,67.67
2022-10-07T09:23:46.628Z,67.28
2022-10-07T09:26:17.557Z,66.62
2022-10-07T09:28:45.473Z,66.16
2022-10-07T09:31:15.573Z,66.50
2022-10-07T09:33:50.419Z,65.71
2022-10-07T09:36:19.261Z,65.47
2022-10-07T09:38:50.197Z,65.47
2022-10-07T09:41:25.766Z,64.63
2022-10-07T09:44:00.943Z,64.20
2022-10-07T09:46:40.961Z,63.71
2022-10-07T09:49:38.488Z,63.62
2022-10-07T09:52:22.711Z,64.13
2022-10-07T09:54:53.891Z,62.54
2022-10-07T09:57:24.719Z,61.25
2022-10-07T10:00:12.766Z,61.30
2022-10-07T10:02:45.704Z,61.40
2022-10-07T10:05:24.155Z,61.35
2022-10-07T10:08:18.443Z,60.72
2022-10-07T10:10:58.197Z,60.17
2022-10-07T10:13:31.790Z,60.83
2022-10-07T10:16:00.258Z,60.61
2022-10-07T10:18:33.046Z,60.35
2022-10-07T10:21:30.730Z,59.61
2022-10-07T10:24:14.465Z,60.64
2022-10-07T10:27:04.742Z,60.52
2022-10-07T10:29:59.470Z,59.63
2022-10-07T10:32:39.496Z,60.00
2022-10-07T10:35:07.261Z,59.66
2022-10-07T10:37:40.866Z,58.61
2022-10-07T10:40:27.970Z,59.13
2022-10-07T10:43:13.752Z,59.13
2022-10-07T10:46:08.763Z,58.53
2022-10-07T10:49:02.885Z,58.15
2022-10-07T10:51:45.431Z,57.41
2022-10-07T10:54:39.010Z,56.93
2022-10-07T10:57:45.375Z,57.59
2022-10-07T11:00:15.802Z,56.98
2022-10-07T11:02:43.900Z,56.21
2022-10-07T11:05:28.532Z,55.85
2022-10-07T11:08:02.115Z,55.37
2022-10-07T11:10:36.452Z,56.36
2022-10-07T11:13:13.431Z,55.96
2022-10-07T11:16:09.963Z,55.94
2022-10-07T11:19:03.946Z,56.02
2022-10-07T11:21:46.403Z,56.56
2022-10-07T11:24:25.402Z,56.71
2022-10-07T11:27:03.488Z,54.94
2022-10-07T11:29:31.269Z,55.32
2022-10-07T11:32:11.094Z,54.42
2022-10-07T11:34:56.263Z,55.10
2022-10-07T11:37:30.187Z,55.66
2022-10-07T11:39:57.975Z,55.24
2022-10-07T11:42:34.020Z,54.92
2022-10-07T11:45:09.555Z,54.08
2022-10-07T11:47:43.239Z,55.45
2022-10-07T11:50:19.910Z,55.09
2022-10-07T11:52:51.477Z,55.29
2022-10-07T11:55:34.486Z,55.25
2022-10-07T11:58:04.518Z,54.34
2022-10-07T12:00:35.344Z,54.40
2022-10-07T12:03:18.688Z,53.11
2022-10-07T12:05:49.500Z,54.47
2022-10-07T12:08:30.162Z,53.41
2022-10-07T12:11:13.185Z,54.36
2022-10-07T12:13:50.837Z,53.38
2022-10-07T12:16:24.531Z,53.68
2022-10-07T12:19:06.493Z,53.29
2022-10-07T12:21:59.499Z,53.99
2022-10-07T12:24:28.556Z,53.61
2022-10-07T12:26:58.747Z,54.02
2022-10-07T12:29:35.730Z,53.72
2022-10-07T12:32:04.911Z,53.43
2022-10-07T12:34:40.540Z,52.63
2022-10-07T12:37:40.487Z,52.86
2022-10-07T12:40:18.288Z,53.38
2022-10-07T12:42:53.624Z,52.21
2022-10-07T12:45:25.570Z,51.58
2022-10-07T12:47:57.889Z,53.30
2022-10-07T12:50:27.256Z,52.65
2022-10-07T12:52:58.000Z,52.42
2022-10-07T12:55:39.486Z,53.35
2022-10-07T12:58:57.122Z,52.89
2022-10-07T13:01:43.798Z,54.05
2022-10-07T13:04:23.864Z,54.78
2022-10-07T13:07:20.819Z,53.96
2022-10-07T13:10:03.783Z,54.63
2022-10-07T13:12:46.569Z,53.83
2022-10-07T13:15:58.650Z,53.26
2022-10-07T13:18:40.035Z,54.08
2022-10-07T13:21:25.537Z,54.55
2022-10-07T13:23:54.400Z,54.43
2022-10-07T13:26:24.215Z,54.03
2022-10-07T13:28:55.866Z,54.22
2022-10-07T13:31:30.712Z,54.38
2022-10-07T13:34:02.045Z,55.09
2022-10-07T13:36:34.942Z,54.69
2022-10-07T13:39:23.377Z,55.34
2022-10-07T13:41:57.310Z,55.14
2022-10-07T13:44:32.214Z,54.83
2022-10-07T13:47:02.436Z,55.21
2022-10-07T13:49:40.169Z,55.19
2022-10-07T13:52:21.224Z,55.67
2022-10-07T13:54:52.961Z,55.41
2022-10-07T13:57:21.924Z,55.62
2022-10-07T13:59:51.973Z,56.89
2022-10-07T14:02:20.665Z,56.51
2022-10-07T14:04:59.667Z,56.71
2022-10-07T14:07:29.272Z,56.16
2022-10-07T14:10:00.151Z,56.63
2022-10-07T14:12:35.781Z,56.82
2022-10-07T14:15:23.409Z,56.61
2022-10-07T14:18:00.498Z,57.17
2022-10-07T14:20:32.760Z,57.22
2022-10-07T14:23:05.580Z,57.26
2022-10-07T14:25:50.604Z,57.48
2022-10-07T14:28:24.602Z,58.01
2022-10-07T14:31:23.665Z,57.74
2022-10-07T14:34:31.949Z,58.10
2022-10-07T14:37:01.626Z,58.54
2022-10-07T14:39:36.072Z,59.56
2022-10-07T14:42:06.473Z,59.05
2022-10-07T14:44:35.539Z,59.09
2022-10-07T14:47:04.459Z,60.11
2022-10-07T14:49:32.428Z,60.23
2022-10-07T14:52:01.116Z,60.87
2022-10-07T14:54:28.936Z,60.66
2022-10-07T14:56:56.848Z,61.33
2022-10-07T14:59:24.814Z,61.30
2022-10-07T15:01:52.685Z,61.41
2022-10-07T15:04:20.631Z,61.11
2022-10-07T15:06:51.056Z,61.37
2022-10-07T15:09:19.037Z,61.83
2022-10-07T15:11:47.009Z,61.97
2022-10-07T15:14:15.108Z,62.75
2022-10-07T15:16:43.197Z,62.64
2022-10-07T15:19:11.221Z,63.08
2022-10-07T15:21:39.092Z,63.11
2022-10-07T15:24:07.362Z,63.66
2022-10-07T15:26:35.274Z,64.44
2022-10-07T15:29:03.198Z,64.66
2022-10-07T15:31:31.089Z,64.69
2022-10-07T15:33:59.779Z,64.77
2022-10-07T15:36:29.555Z,65.05
2022-10-07T15:39:02.279Z,65.77
2022-10-07T15:41:35.062Z,66.27
2022-10-07T15:44:06.191Z,67.00
2022-10-07T15:46:35.214Z,67.32
2022-10-07T15:49:04.649Z,67.66
2022-10-07T15:51:32.576Z,67.97
2022-10-07T15:54:00.593Z,68.44
2022-10-07T15:56:28.673Z,68.86
2022-10-07T15:58:58.596Z,69.32
2022-10-07T16:01:29.109Z,69.73
2022-10-07T16:03:58.140Z,70.19
2022-10-07T16:06:30.667Z,70.58
2022-10-07T16:08:59.461Z,71.01
2022-10-07T16:11:29.001Z,71.45
2022-10-07T16:13:59.514Z,71.80
2022-10-07T16:16:28.532Z,72.13
2022-10-07T16:18:58.288Z,72.55
2022-10-07T16:21:32.810Z,73.08
2022-10-07T16:24:06.008Z,73.36
2022-10-07T16:26:35.998Z,73.63
2022-10-07T16:29:26.000Z,74.17
2022-10-07T16:31:58.415Z,74.58
2022-10-07T16:34:30.869Z,74.78
2022-10-07T16:36:59.329Z,75.19
2022-10-07T16:39:27.702Z,75.43
2022-10-07T16:41:56.669Z,75.65
2022-10-07T16:44:25.018Z,76.02
2022-10-07T16:46:57.094Z,76.25
2022-10-07T16:49:27.842Z,76.42
2022-10-07T16:51:56.765Z,76.82
2022-10-07T16:54:25.332Z,76.88
2022-10-07T16:56:53.632Z,77.46
2022-10-07T16:59:26.193Z,77.50
2022-10-07T17:01:56.170Z,78.06
2022-10-07T17:04:25.528Z,77.68
2022-10-07T17:06:54.252Z,77.88
2022-10-07T17:09:24.822Z,77.99
2022-10-07T17:11:52.821Z,78.49
2022-10-07T17:14:22.037Z,78.71
2022-10-07T17:16:53.236Z,78.83
2022-10-07T17:19:24.021Z,78.56
2022-10-07T17:21:53.881Z,78.95
2022-10-07T17:24:23.282Z,78.82
2022-10-07T17:26:55.356Z,79.35
2022-10-07T17:29:26.692Z,79.17
2022-10-07T17:31:55.096Z,78.72
2022-10-07T17:34:23.576Z,79.08
2022-10-07T17:36:51.520Z,78.94
2022-10-07T17:39:19.575Z,79.03
2022-10-07T17:41:47.830Z,79.12
2022-10-07T17:44:16.654Z,79.16
2022-10-07T17:46:44.579Z,79.22
2022-10-07T17:49:15.766Z,79.60
2022-10-07T17:51:44.211Z,79.36
2022-10-07T17:54:14.771Z,79.40
2022-10-07T17:56:44.599Z,79.77
2022-10-07T17:59:12.665Z,79.89
2022-10-07T18:01:41.745Z,79.64
2022-10-07T18:04:17.909Z,79.43
2022-10-07T18:06:49.052Z,79.75
2022-10-07T18:09:19.332Z,79.69
2022-10-07T18:12:05.808Z,80.06
2022-10-07T18:14:53.999Z,79.80
2022-10-07T18:17:23.140Z,80.29
2022-10-07T18:19:50.941Z,79.99
2022-10-07T18:22:19.588Z,79.89
2022-10-07T18:24:47.530Z,80.03
2022-10-07T18:27:15.710Z,79.95
2022-10-07T18:29:43.517Z,80.04
2022-10-07T18:32:11.280Z,80.07
2022-10-07T18:34:39.255Z,79.86
2022-10-07T18:37:07.058Z,80.24
2022-10-07T18:39:34.847Z,80.16
2022-10-07T18:42:04.633Z,80.21
2022-10-07T18:44:33.121Z,80.14
2022-10-07T18:47:01.081Z,80.15
2022-10-07T18:49:29.149Z,80.32
2022-10-07T18:51:56.987Z,80.22
2022-10-07T18:54:24.822Z,80.34
2022-10-07T18:56:53.057Z,80.36
2022-10-07T18:59:20.939Z,80.83
2022-10-07T19:01:50.918Z,80.72
2022-10-07T19:04:20.305Z,80.86
2022-10-07T19:06:48.584Z,80.68
2022-10-07T19:09:21.507Z,80.80
2022-10-07T19:11:49.938Z,80.71
2022-10-07T19:14:18.291Z,80.84
2022-10-07T19:16:49.587Z,80.93
2022-10-07T19:19:20.432Z,81.13
2022-10-07T19:21:51.578Z,81.33
2022-10-07T19:24:20.695Z,81.04
2022-10-07T19:26:50.090Z,81.27
2022-10-07T19:29:18.253Z,81.57
2022-10-07T19:31:51.092Z,81.65
2022-10-07T19:34:23.042Z,81.62
2022-10-07T19:36:51.222Z,81.57
2022-10-07T19:39:21.892Z,81.68
2022-10-07T19:41:51.410Z,81.79
2022-10-07T19:44:19.307Z,81.78
2022-10-07T19:46:50.813Z,81.91
2022-10-07T19:49:18.782Z,81.99
2022-10-07T19:51:46.704Z,82.28
2022-10-07T19:54:14.748Z,82.20
2022-10-07T19:56:42.583Z,82.10
2022-10-07T19:59:12.599Z,82.17
2022-10-07T20:01:43.465Z,82.23
2022-10-07T20:04:13.516Z,82.30
2022-10-07T20:06:42.521Z,82.39
2022-10-07T20:09:13.000Z,82.56
2022-10-07T20:11:40.939Z,82.67
2022-10-07T20:14:10.229Z,82.65
2022-10-07T20:16:39.230Z,82.61
2022-10-07T20:19:11.601Z,82.69
2022-10-07T20:21:39.686Z,82.81
2022-10-07T20:24:08.753Z,82.93
2022-10-07T20:26:38.730Z,82.99
2022-10-07T20:29:10.467Z,82.91
2022-10-07T20:31:41.035Z,83.04
2022-10-07T20:34:14.540Z,83.18
2022-10-07T20:36:42.936Z,82.97
2022-10-07T20:39:39.687Z,83.11
2022-10-07T20:42:22.459Z,82.98
2022-10-07T20:44:51.431Z,82.97
2022-10-07T20:47:21.921Z,82.85
2022-10-07T20:49:51.670Z,82.86
2022-10-07T20:52:22.870Z,82.73
2022-10-07T20:54:52.028Z,82.70
2022-10-07T20:57:23.048Z,82.72
2022-10-07T20:59:50.899Z,82.83
2022-10-07T21:02:20.923Z,82.73
2022-10-07T21:04:48.868Z,82.92
2022-10-07T21:07:18.166Z,82.91
2022-10-07T21:09:46.738Z,82.82
2022-10-07T21:12:17.162Z,82.92
2022-10-07T21:14:48.068Z,83.09
2022-10-07T21:17:17.145Z,83.20
2022-10-07T21:19:45.163Z,83.08
2022-10-07T21:22:13.100Z,83.09
2022-10-07T21:24:41.003Z,83.11
2022-10-07T21:27:09.230Z,83.01
2022-10-07T21:29:40.679Z,83.04
2022-10-07T21:32:12.052Z,83.22
2022-10-07T21:34:40.349Z,83.09
2022-10-07T21:37:08.420Z,83.38
2022-10-07T21:39:36.326Z,83.38
2022-10-07T21:42:04.357Z,83.32
2022-10-07T21:44:33.597Z,83.42
2022-10-07T21:47:01.534Z,83.59
2022-10-07T21:49:29.725Z,83.60
2022-10-07T21:51:57.866Z,83.74
2022-10-07T21:54:26.311Z,83.69
2022-10-07T21:56:54.115Z,83.73
2022-10-07T21:59:21.975Z,83.87
2022-10-07T22:01:49.940Z,83.76
2022-10-07T22:04:19.154Z,83.80
2022-10-07T22:07:05.648Z,83.87
2022-10-07T22:09:33.833Z,84.05
2022-10-07T22:12:01.679Z,84.03
2022-10-07T22:14:29.578Z,83.94
2022-10-07T22:16:57.719Z,84.00
2022-10-07T22:19:25.685Z,83.87
2022-10-07T22:21:53.552Z,84.03
2022-10-07T22:24:21.933Z,83.92
2022-10-07T22:26:52.050Z,83.92
2022-10-07T22:29:21.758Z,84.00
2022-10-07T22:31:50.238Z,84.02
2022-10-07T22:34:36.724Z,83.81
2022-10-07T22:37:06.271Z,83.90
2022-10-07T22:39:34.288Z,83.81
2022-10-07T22:42:03.875Z,83.90
2022-10-07T22:44:31.925Z,83.91
2022-10-07T22:46:59.973Z,83.93
2022-10-07T22:49:30.288Z,83.93
2022-10-07T22:52:00.189Z,83.84
2022-10-07T22:54:29.477Z,83.84
2022-10-07T22:56:57.362Z,83.86
2022-10-07T22:59:25.325Z,83.79
2022-10-07T23:01:53.596Z,83.85
2022-10-07T23:04:21.805Z,83.92
2022-10-07T23:06:49.969Z,83.90
2022-10-07T23:09:18.209Z,83.89
2022-10-07T23:11:46.221Z,83.99
2022-10-07T23:14:14.028Z,84.07
2022-10-07T23:16:42.537Z,84.19
2022-10-07T23:19:10.505Z,84.13
2022-10-07T23:21:38.515Z,84.12
2022-10-07T23:24:08.294Z,84.31
2022-10-07T23:26:37.402Z,84.25
2022-10-07T23:29:05.804Z,84.42
2022-10-07T23:31:33.990Z,84.54
2022-10-07T23:34:03.222Z,84.42
2022-10-07T23:36:31.818Z,84.56
2022-10-07T23:39:00.906Z,84.72
2022-10-07T23:41:30.807Z,84.72
2022-10-07T23:44:00.840Z,84.76
2022-10-07T23:46:33.224Z,84.82
2022-10-07T23:49:01.606Z,84.90
2022-10-07T23:51:32.427Z,84.89
2022-10-07T23:54:03.098Z,85.03
2022-10-07T23:56:31.827Z,84.94
2022-10-07T23:59:00.826Z,84.97
